• Join FlightAware (Why Join?)
  • Login
  • US Flag 
11:18AM EDT


 

Airport Tracker/Info


-or-


 

Live Flight TrackerFlight Track Log ✈ N62457 ✈ 16-Jun-2013 ✈ KGFL - KFRG

Flight Track Log - Related Links

Times and Time Zones

All times are in EDT time to prevent confusion due to time zone crossing. See the N62457 flight status page for this flight to view local times or setup timezone preferences in your user account.

Time Position Orientation Groundspeed Altitude Reporting Facility
EDT Latitude Longitude Course Direction KTS MPH feet Rate Location/Type
10:51AM 42.7047 -73.6183 177° South 98 113 4,500  Level Boston Center
10:52AM 42.6778 -73.6178 179° South 97 112 4,600  Climbing Boston Center
10:53AM 42.6528 -73.6172 179° South 95 109 4,600 -60 Level Boston Center
10:54AM 42.6236 -73.6194 183° South 99 114 4,500 -60 Descending Boston Center
10:55AM 42.5986 -73.6247 189° South 95 109 4,500  Level Boston Center
10:56AM 42.6738 -73.5584 177° South  Level Estimated
10:56AM 42.5672 -73.6214 176° South 94 108 4,500  Level Boston Center
10:57AM 42.5422 -73.6208 179° South 94 108 4,500  Level Boston Center
10:58AM 42.5172 -73.6203 179° South 95 109 4,500  Level Boston Center
10:59AM 42.4881 -73.6225 183° South 94 108 4,500  Level Boston Center
11:00AM 42.4650 -73.6222 179° South 95 109 4,500  Level Boston Center
11:01AM 42.4358 -73.6217 179° South 95 109 4,500  Level Boston Center
11:02AM 42.4108 -73.6183 174° South 96 110 4,500 -60 Level Boston Center
11:03AM 42.3817 -73.6178 179° South 98 113 4,400 -120 Descending Boston Center
11:04AM 42.3547 -73.6172 179° South 98 113 4,300  Descending Boston Center
11:05AM 42.3297 -73.6139 174° South 93 107 4,400  Climbing Boston Center
11:06AM 42.3006 -73.6106 175° South 93 107 4,400  Level Boston Center
11:07AM 42.2756 -73.6131 184° South 95 109 4,500  Climbing Boston Center
11:08AM 42.2464 -73.6125 179° South 95 109 4,500  Level Boston Center
11:09AM 42.2214 -73.6092 174° South 96 110 4,500  Level Boston Center
11:10AM 42.1942 -73.6114 183° South 92 106 4,600  Climbing Boston Center
11:11AM 42.1692 -73.6111 180° South 91 105 4,500  Descending Boston Center
11:12AM 42.1422 -73.6106 179° South 89 102 4,600  Climbing Boston Center
11:13AM 42.1172 -73.6100 179° South 89 102 4,500 -120 Descending Boston Center
11:15AM 42.0737 -73.5781 151° Southeast  Level FlightAware Approximate
11:22AM 41.8148 -73.5459 176° South  Level Estimated
11:23AM 41.7789 -73.5336 166° South  Level FlightAware Approximate
11:24AM 41.7429 -73.5212 166° South  Level FlightAware Approximate
11:25AM 41.7069 -73.5089 166° South  Level FlightAware Approximate
11:26AM 41.6709 -73.4966 166° South  Level FlightAware Approximate
11:27AM 41.6349 -73.4843 166° South  Level FlightAware Approximate
11:28AM 41.5990 -73.4720 166° South  Level FlightAware Approximate
11:29AM 41.5619 -73.4695 175° South  Level Estimated
11:30AM 41.5250 -73.4639 174° South  Level FlightAware Approximate
11:31AM 41.4881 -73.4583 174° South  Level FlightAware Approximate
11:32AM 41.4512 -73.4527 174° South  Level FlightAware Approximate
11:33AM 41.4141 -73.4507 177° South  Level Estimated
11:34AM 41.3770 -73.4482 177° South  Level FlightAware Approximate
11:35AM 41.3399 -73.4457 177° South  Level FlightAware Approximate
11:36AM 41.3028 -73.4433 177° South  Level FlightAware Approximate
11:37AM 41.2657 -73.4408 177° South  Level FlightAware Approximate
11:38AM 41.2286 -73.4383 177° South  Level FlightAware Approximate
11:39AM 41.1915 -73.4359 177° South  Level FlightAware Approximate
11:40AM 41.1544 -73.4334 177° South  Level FlightAware Approximate
11:41AM 41.1173 -73.4310 177° South  Level FlightAware Approximate
11:42AM 41.0802 -73.4285 177° South  Level FlightAware Approximate
11:43AM 41.0432 -73.4261 177° South  Level FlightAware Approximate
11:44AM 41.0061 -73.4236 177° South  Level FlightAware Approximate
11:45AM 40.9690 -73.4212 177° South  Level FlightAware Approximate
11:46AM 40.9319 -73.4188 177° South  Level FlightAware Approximate
11:47AM 40.8948 -73.4178 180° South  Level Estimated
11:48AM 40.8576 -73.4168 180° South  Level Estimated
11:49AM 40.8205 -73.4167 180° South  Level FlightAware Approximate
11:50AM 40.7834 -73.4154 171° South  Level Estimated
11:51AM 40.7468 -73.4069 170° South  Level FlightAware Approximate
11:52AM 40.7288 -73.4134 171° South  Level Estimated
11:53AM 40.7288 -73.4134 171° South  Level Estimated
11:54AM 40.7288 -73.4134 171° South  Level Estimated
11:55AM 40.7288 -73.4134 171° South  Level Estimated
11:56AM 40.7288 -73.4134 171° South  Level Estimated
11:57AM 40.7288 -73.4134 171° South  Level Estimated
11:58AM 40.7288 -73.4134 171° South  Level Estimated
11:59AM 40.7288 -73.4134 171° South  Level Estimated
12:00PM 40.7288 -73.4134 171° South  Level Estimated
12:01PM 40.7288 -73.4134 171° South  Level Estimated
12:02PM 40.7288 -73.4134 171° South  Level Estimated
12:03PM 40.7288 -73.4134 171° South  Level Estimated
12:04PM 40.7288 -73.4134 171° South  Level Estimated